createdAt,value
2023-02-28T00:02:24.554Z,28.16
2023-02-28T00:06:24.594Z,28.16
2023-02-28T00:10:24.700Z,28.09
2023-02-28T00:14:24.650Z,28.12
2023-02-28T00:18:24.741Z,28.06
2023-02-28T00:22:24.792Z,28.06
2023-02-28T00:26:24.805Z,27.98
2023-02-28T00:30:24.814Z,27.96
2023-02-28T00:34:24.818Z,27.95
2023-02-28T00:38:24.785Z,27.90
2023-02-28T00:42:24.774Z,27.89
2023-02-28T00:46:24.772Z,27.85
2023-02-28T00:50:24.748Z,27.83
2023-02-28T00:54:24.731Z,27.80
2023-02-28T00:58:24.721Z,27.80
2023-02-28T01:02:24.704Z,27.74
2023-02-28T01:06:24.699Z,27.76
2023-02-28T01:10:24.681Z,27.71
2023-02-28T01:14:24.662Z,27.71
2023-02-28T01:18:24.706Z,27.64
2023-02-28T01:22:24.693Z,27.60
2023-02-28T01:26:24.705Z,27.62
2023-02-28T01:30:24.707Z,27.59
2023-02-28T01:34:24.686Z,27.52
2023-02-28T01:38:24.668Z,27.52
2023-02-28T01:42:24.628Z,27.50
2023-02-28T01:46:24.678Z,27.44
2023-02-28T01:50:24.653Z,27.42
2023-02-28T01:54:24.615Z,27.39
2023-02-28T01:58:24.587Z,27.36
2023-02-28T02:02:24.611Z,27.33
2023-02-28T02:06:24.580Z,27.30
2023-02-28T02:10:24.556Z,27.28
2023-02-28T02:14:24.552Z,27.22
2023-02-28T02:18:24.519Z,27.20
2023-02-28T02:22:24.508Z,27.16
2023-02-28T02:26:24.509Z,27.13
2023-02-28T02:30:24.488Z,27.10
2023-02-28T02:34:24.567Z,27.07
2023-02-28T02:38:24.533Z,27.02
2023-02-28T02:42:24.496Z,26.96
2023-02-28T02:46:24.525Z,26.92
2023-02-28T02:50:24.561Z,26.89
2023-02-28T02:54:24.583Z,26.88
2023-02-28T02:58:24.608Z,26.84
2023-02-28T03:02:24.584Z,26.83
2023-02-28T03:06:24.585Z,26.75
2023-02-28T03:10:24.603Z,26.75
2023-02-28T03:14:24.622Z,26.69
2023-02-28T03:18:24.640Z,26.66
2023-02-28T03:22:24.647Z,26.62
2023-02-28T03:26:24.650Z,26.59
2023-02-28T03:30:24.660Z,26.59
2023-02-28T03:34:24.681Z,26.55
2023-02-28T03:38:24.668Z,26.50
2023-02-28T03:42:24.755Z,26.46
2023-02-28T03:46:24.765Z,26.43
2023-02-28T03:50:24.775Z,26.39
2023-02-28T03:54:24.831Z,26.37
2023-02-28T03:58:24.846Z,26.32
2023-02-28T04:02:24.905Z,26.29
2023-02-28T04:06:24.974Z,26.24
2023-02-28T04:10:25.019Z,26.14
2023-02-28T04:14:25.065Z,26.11
2023-02-28T04:18:25.131Z,26.12
2023-02-28T04:22:25.153Z,26.07
2023-02-28T04:26:25.190Z,26.02
2023-02-28T04:30:25.247Z,25.99
2023-02-28T04:34:25.290Z,25.98
2023-02-28T04:38:25.434Z,25.98
2023-02-28T04:42:25.420Z,25.93
2023-02-28T04:46:25.448Z,25.92
2023-02-28T04:50:25.553Z,25.86
2023-02-28T04:54:25.579Z,25.83
2023-02-28T04:58:25.670Z,25.81
2023-02-28T05:02:25.817Z,25.78
2023-02-28T05:06:25.817Z,25.77
2023-02-28T05:10:25.882Z,25.73
2023-02-28T05:14:25.931Z,25.72
2023-02-28T05:18:25.973Z,25.69
2023-02-28T05:22:26.019Z,25.64
2023-02-28T05:26:26.081Z,25.64
2023-02-28T05:30:26.076Z,25.62
2023-02-28T05:34:26.133Z,25.56
2023-02-28T05:38:26.170Z,25.53
2023-02-28T05:42:26.235Z,25.50
2023-02-28T05:46:26.268Z,25.44
2023-02-28T05:50:26.316Z,25.41
2023-02-28T05:54:26.316Z,25.40
2023-02-28T05:58:26.396Z,25.60
2023-02-28T06:02:26.456Z,25.59
2023-02-28T06:06:26.372Z,25.56
2023-02-28T06:10:26.421Z,25.68
2023-02-28T06:14:26.615Z,25.77
2023-02-28T06:18:26.788Z,25.72
2023-02-28T06:22:26.785Z,25.56
2023-02-28T06:26:26.725Z,25.61
2023-02-28T06:30:26.670Z,25.59
2023-02-28T06:34:26.634Z,25.68
2023-02-28T06:38:26.604Z,25.70
2023-02-28T06:42:26.734Z,26.27
2023-02-28T06:46:26.564Z,27.03
2023-02-28T06:50:26.841Z,28.02
2023-02-28T06:54:26.714Z,28.28
2023-02-28T06:58:26.719Z,28.84
2023-02-28T07:02:26.367Z,29.67
2023-02-28T07:06:26.727Z,30.42
2023-02-28T07:10:26.322Z,30.88
2023-02-28T07:14:26.489Z,31.33
2023-02-28T07:18:26.478Z,31.84
2023-02-28T07:22:26.417Z,32.36
2023-02-28T07:26:26.379Z,32.83
2023-02-28T07:30:26.358Z,33.14
2023-02-28T07:34:26.309Z,33.42
2023-02-28T07:38:26.250Z,33.68
2023-02-28T07:42:26.209Z,33.90
2023-02-28T07:46:28.365Z,34.15
2023-02-28T07:50:27.223Z,33.93
2023-02-28T07:54:26.256Z,28.46
2023-02-28T07:58:26.096Z,29.49
2023-02-28T08:02:26.056Z,31.79
2023-02-28T08:06:26.045Z,32.86
2023-02-28T08:10:26.369Z,33.98
2023-02-28T08:14:25.956Z,34.29
2023-02-28T08:18:25.945Z,34.73
2023-02-28T08:22:25.903Z,35.28
2023-02-28T08:26:25.832Z,35.92
2023-02-28T08:30:25.955Z,36.50
2023-02-28T08:34:25.923Z,36.92
2023-02-28T08:38:25.916Z,37.44
2023-02-28T08:42:26.266Z,37.84
2023-02-28T08:46:26.254Z,37.55
2023-02-28T08:50:25.848Z,37.38
2023-02-28T08:54:25.730Z,37.29
2023-02-28T08:58:25.680Z,37.41
2023-02-28T09:02:25.754Z,37.39
2023-02-28T09:06:25.597Z,37.54
2023-02-28T09:10:25.780Z,37.79
2023-02-28T09:14:25.731Z,37.89
2023-02-28T09:18:25.677Z,38.03
2023-02-28T09:22:25.657Z,38.26
2023-02-28T09:26:25.605Z,38.46
2023-02-28T09:30:25.840Z,38.45
2023-02-28T09:34:25.574Z,38.58
2023-02-28T09:38:25.507Z,38.52
2023-02-28T09:42:25.826Z,38.38
2023-02-28T09:46:25.781Z,38.45
2023-02-28T09:50:25.770Z,38.16
2023-02-28T09:54:25.340Z,30.89
2023-02-28T09:58:25.786Z,32.22
2023-02-28T10:02:25.278Z,33.91
2023-02-28T10:06:25.752Z,34.64
2023-02-28T10:10:25.364Z,34.78
2023-02-28T10:14:25.348Z,35.21
2023-02-28T10:18:25.309Z,35.93
2023-02-28T10:22:25.224Z,36.28
2023-02-28T10:26:25.206Z,36.63
2023-02-28T10:30:25.274Z,32.03
2023-02-28T10:34:25.301Z,30.00
2023-02-28T10:38:25.102Z,27.05
2023-02-28T10:42:25.094Z,30.61
2023-02-28T10:46:25.285Z,31.77
2023-02-28T10:50:25.297Z,32.26
2023-02-28T10:54:25.286Z,32.69
2023-02-28T10:58:24.892Z,32.64
2023-02-28T11:02:24.833Z,32.31
2023-02-28T11:06:25.313Z,32.19
2023-02-28T11:10:24.761Z,31.98
2023-02-28T11:14:24.755Z,31.90
2023-02-28T11:18:24.717Z,31.66
2023-02-28T11:22:24.688Z,31.35
2023-02-28T11:26:24.637Z,30.93
2023-02-28T11:30:24.589Z,30.97
2023-02-28T11:34:24.560Z,30.81
2023-02-28T11:38:24.528Z,30.50
2023-02-28T11:42:24.789Z,30.98
2023-02-28T11:46:24.833Z,31.72
2023-02-28T11:50:24.484Z,32.87
2023-02-28T11:54:24.434Z,33.75
2023-02-28T11:58:24.400Z,34.53
2023-02-28T12:02:24.847Z,34.59
2023-02-28T12:06:24.359Z,34.74
2023-02-28T12:10:24.275Z,35.12
2023-02-28T12:14:24.279Z,35.69
2023-02-28T12:18:24.340Z,36.24
2023-02-28T12:22:24.343Z,36.30
2023-02-28T12:26:24.149Z,35.09
2023-02-28T12:30:24.340Z,35.67
2023-02-28T12:34:24.343Z,35.64
2023-02-28T12:38:24.118Z,35.59
2023-02-28T12:42:23.982Z,35.48
2023-02-28T12:46:24.180Z,33.44
2023-02-28T12:50:23.961Z,29.52
2023-02-28T12:54:24.344Z,32.69
2023-02-28T12:58:23.878Z,32.30
2023-02-28T13:02:24.384Z,32.11
2023-02-28T13:06:23.821Z,31.96
2023-02-28T13:10:23.742Z,32.31
2023-02-28T13:14:23.721Z,32.63
2023-02-28T13:18:23.688Z,28.51
2023-02-28T13:22:24.463Z,23.16
2023-02-28T13:26:24.343Z,22.36
2023-02-28T13:30:23.568Z,25.57
2023-02-28T13:34:23.846Z,27.80
2023-02-28T13:38:23.718Z,29.04
2023-02-28T13:42:23.878Z,29.65
2023-02-28T13:46:24.013Z,29.86
2023-02-28T13:50:25.028Z,29.83
2023-02-28T13:54:24.106Z,30.39
2023-02-28T13:58:24.094Z,30.33
2023-02-28T14:02:24.041Z,31.58
2023-02-28T14:06:24.012Z,32.21
2023-02-28T14:10:23.965Z,32.18
2023-02-28T14:14:23.957Z,32.21
2023-02-28T14:18:25.852Z,32.21
2023-02-28T14:22:23.862Z,32.16
2023-02-28T14:26:23.844Z,32.09
2023-02-28T14:30:23.785Z,32.03
2023-02-28T14:34:23.740Z,31.93
2023-02-28T14:38:23.699Z,31.86
2023-02-28T14:42:23.660Z,31.81
2023-02-28T14:46:23.669Z,31.77
2023-02-28T14:50:23.584Z,31.72
2023-02-28T14:54:23.539Z,31.59
2023-02-28T14:58:23.595Z,31.58
2023-02-28T15:02:23.493Z,31.58
2023-02-28T15:06:23.459Z,31.60
2023-02-28T15:10:23.892Z,31.72
2023-02-28T15:14:23.376Z,31.68
2023-02-28T15:18:23.332Z,31.64
2023-02-28T15:22:23.302Z,31.59
2023-02-28T15:26:23.269Z,31.52
2023-02-28T15:30:23.246Z,31.43
2023-02-28T15:34:26.490Z,31.34
2023-02-28T15:38:24.146Z,31.29
2023-02-28T15:42:23.087Z,31.25
2023-02-28T15:46:23.088Z,31.25
2023-02-28T15:50:23.030Z,31.21
2023-02-28T15:54:23.149Z,31.21
2023-02-28T15:58:23.075Z,31.21
2023-02-28T16:02:23.154Z,31.25
2023-02-28T16:06:23.114Z,31.30
2023-02-28T16:10:23.256Z,31.34
2023-02-28T16:14:23.240Z,31.37
2023-02-28T16:18:23.352Z,31.41
2023-02-28T16:22:23.450Z,31.46
2023-02-28T16:26:23.589Z,31.50
2023-02-28T16:30:23.865Z,31.56
2023-02-28T16:34:23.891Z,31.58
2023-02-28T16:38:24.074Z,31.65
2023-02-28T16:42:24.277Z,31.70
2023-02-28T16:46:24.494Z,31.74
2023-02-28T16:50:24.656Z,31.78
2023-02-28T16:54:24.605Z,31.78
2023-02-28T16:58:24.538Z,31.79
2023-02-28T17:02:24.734Z,31.82
2023-02-28T17:06:24.479Z,31.82
2023-02-28T17:10:24.450Z,31.84
2023-02-28T17:14:24.430Z,31.83
2023-02-28T17:18:24.374Z,31.82
2023-02-28T17:22:24.326Z,31.80
2023-02-28T17:26:24.391Z,31.81
2023-02-28T17:30:24.231Z,31.85
2023-02-28T17:34:24.271Z,31.85
2023-02-28T17:38:24.264Z,31.81
2023-02-28T17:42:24.212Z,31.84
2023-02-28T17:46:24.297Z,31.83
2023-02-28T17:50:24.141Z,31.81
2023-02-28T17:54:24.110Z,31.80
2023-02-28T17:58:24.081Z,31.80
2023-02-28T18:02:24.075Z,31.80
2023-02-28T18:06:24.001Z,31.79
2023-02-28T18:10:23.971Z,31.78
2023-02-28T18:14:23.934Z,31.75
2023-02-28T18:18:23.985Z,31.77
2023-02-28T18:22:24.081Z,31.75
2023-02-28T18:26:24.251Z,31.73
2023-02-28T18:30:24.241Z,31.72
2023-02-28T18:34:24.194Z,31.71
2023-02-28T18:38:24.263Z,31.67
2023-02-28T18:42:24.208Z,31.67
2023-02-28T18:46:24.266Z,31.67
2023-02-28T18:50:24.165Z,31.64
2023-02-28T18:54:24.175Z,31.61
2023-02-28T18:58:24.158Z,31.61
2023-02-28T19:02:24.170Z,31.60
2023-02-28T19:06:24.162Z,31.58
2023-02-28T19:10:24.134Z,31.56
2023-02-28T19:14:24.119Z,31.53
2023-02-28T19:18:24.115Z,31.54
2023-02-28T19:22:24.101Z,31.48
2023-02-28T19:26:24.114Z,31.46
2023-02-28T19:30:24.129Z,31.42
2023-02-28T19:34:24.123Z,31.41
2023-02-28T19:38:24.173Z,31.37
2023-02-28T19:42:24.183Z,31.34
2023-02-28T19:46:24.199Z,31.31
2023-02-28T19:50:24.241Z,31.30
2023-02-28T19:54:24.267Z,31.25
2023-02-28T19:58:24.332Z,31.21
2023-02-28T20:02:24.359Z,31.22
2023-02-28T20:06:24.423Z,31.18
2023-02-28T20:10:24.469Z,31.14
2023-02-28T20:14:24.481Z,31.14
2023-02-28T20:18:24.547Z,31.10
2023-02-28T20:22:24.592Z,31.09
2023-02-28T20:26:24.643Z,31.02
2023-02-28T20:30:24.748Z,30.98
2023-02-28T20:34:24.779Z,30.95
2023-02-28T20:38:24.832Z,30.92
2023-02-28T20:42:24.940Z,30.92
2023-02-28T20:46:25.085Z,30.87
2023-02-28T20:50:25.051Z,30.85
2023-02-28T20:54:25.172Z,30.82
2023-02-28T20:58:25.290Z,30.78
2023-02-28T21:02:25.382Z,30.79
2023-02-28T21:06:25.442Z,30.71
2023-02-28T21:10:25.551Z,30.71
2023-02-28T21:14:25.702Z,30.67
2023-02-28T21:18:25.797Z,30.64
2023-02-28T21:22:25.913Z,30.58
2023-02-28T21:26:26.030Z,30.57
2023-02-28T21:30:26.161Z,30.52
2023-02-28T21:34:26.316Z,30.50
2023-02-28T21:38:26.408Z,30.43
2023-02-28T21:42:26.550Z,30.42
2023-02-28T21:46:26.786Z,30.41
2023-02-28T21:50:26.854Z,30.35
2023-02-28T21:54:26.975Z,30.35
2023-02-28T21:58:27.192Z,30.30
2023-02-28T22:02:29.961Z,30.25
2023-02-28T22:06:27.311Z,30.24
2023-02-28T22:10:27.257Z,30.23
2023-02-28T22:14:27.248Z,30.21
2023-02-28T22:18:27.202Z,30.15
2023-02-28T22:22:27.154Z,30.13
2023-02-28T22:26:27.122Z,30.09
2023-02-28T22:30:27.068Z,30.04
2023-02-28T22:34:27.031Z,30.01
2023-02-28T22:38:26.998Z,29.99
2023-02-28T22:42:26.969Z,29.97
2023-02-28T22:46:26.996Z,29.94
2023-02-28T22:50:26.901Z,29.90
2023-02-28T22:54:26.984Z,29.87
2023-02-28T22:58:27.168Z,29.84
2023-02-28T23:02:27.332Z,29.79
2023-02-28T23:06:27.647Z,29.74
2023-02-28T23:10:27.736Z,29.73
2023-02-28T23:14:27.925Z,29.71
2023-02-28T23:18:28.168Z,29.67
2023-02-28T23:22:28.274Z,29.66
2023-02-28T23:26:28.657Z,29.63
2023-02-28T23:30:28.709Z,29.63
2023-02-28T23:34:28.924Z,29.58
2023-02-28T23:38:29.115Z,29.57
2023-02-28T23:42:29.291Z,29.53
2023-02-28T23:46:29.878Z,29.51
2023-02-28T23:50:29.731Z,29.48
2023-02-28T23:54:29.933Z,29.49
2023-02-28T23:58:30.170Z,29.49
